Terminal Aerodrome Forecast
Issued by NWS

Current Version | Previous Version | Graphics & Text | Print | Product List | Glossary On
Versions: 1 2 3 4 5 6 7 8 9 10 11 12 13 14 15 16 17
849
FTUS41 KPBZ 142329
TAFHLG
TAF
KHLG 142329Z 1500/1524 27003KT P6SM SCT035
     FM151200 22003KT P6SM BKN060
     FM152000 23008KT P6SM VCSH OVC040=

USA.gov is the U.S. government's official web portal to all federal, state and local government web resources and services.